Kayenta, Utah
Current Conditions -  °F | °C
As of 2:55 AM on Sunday 21 Dec 2014 (Local Time) from KSGU Reporting Station
Clear Clear  
Wind Chill: 36°   Ceiling: Unl
Heat Index: 36°   Visibility: 10mi
Dew Point: 30°   Wind: 0mph
Humidity: 81%   Direction: NA
Pressure: 30.18"   Gusts: NA
Location:  37.1829°N, 113.647°W
Report Text: KSGU 210955Z AUTO 00000KT 10SM CLR 02/M01 A3018 RMK AO1
Loading
Personal Weather Stations






























Interactive Weather Map New forecast layout! Learn more

10-Day Weather Forecast

Advertisements
Track Severe Weather on mobile